Aeroporto :
LOGIN :

Iscrizione | Disclaimer

   EN    FR    IT 

 










Sommario :    VFR   VFR Marginale   IFR   IFR Intensivo   IFR Molto Intensivo
Visibilità : 
Base nubi : 
>= 8 km
>= 3000ft
5 / 8 km
1000 / 3000 ft
1500m / 5 km
500 / 1000 ft
800 / 1500m
200 / 500 ft
< 800m
< 200 ft
Simboli :   Temporali  Nebbia  Neve Forte  Precipitazioni Forti  Vento > 20 kt
SIGMETs :   Varie  Temporali  Ghiacco  Turbolenza  Onda orograficha  Ceneri Vulcaniche







- Altitudine del aeroporto : 33 ft
- Codice IATA : PLQ


EYPA - Palanga

ULTIMO METAR :
  • 180620Z VRB03KT CAVOK 19/16 Q1021

METARs OBSOLETI :
  • 180550Z 25003KT 170V330 CAVOK 18/15 Q1021
  • 180520Z 24003KT 170V320 CAVOK 18/16 Q1021
  • 180450Z 23003KT 160V280 CAVOK 18/16 Q1021
  • 180420Z 25003KT 170V310 CAVOK 18/16 Q1020
  • 180350Z VRB02KT CAVOK 17/15 Q1020

TAF TAF EYPA
Valido dal 18 a 06 ore il 19 a 06 ore UTC


180501Z 1806/1906 VRB05KT 9000 NSC
TEMPO 1822/1904 5000 BR
Nessun NOTAM noto per questo aeroporto.



MetMap, La meteo Aeronautica in un colpo d'occhio ! - Copyright ORBIFLY Dicembre 2007 - Disclaimer

ORBIFLY MET'MAP TEAM :

Programmazione e sviluppo : Alexandra Zaïnal
Concezione e sviluppo : Baudouin d'Aumeries
Co-Programmazione e sviluppo : Marc-Olivier Méhu
Supporto tecnico e logistico : Manuel Goepfert
Aiuto per la traduzione : Arnaldo La Scala

Contatto : metmap@orbifly.com




FONTI E CREDITI :

   NOAA